sensor_id;sensor_type;location;lat;lon;timestamp;P1;durP1;ratioP1;P2;durP2;ratioP2
6109;SDS011;3085;49.444;11.054;2022-12-28T00:01:38;4.60;;;2.80;;
6109;SDS011;3085;49.444;11.054;2022-12-28T00:04:05;5.57;;;3.37;;
6109;SDS011;3085;49.444;11.054;2022-12-28T00:06:31;6.07;;;3.40;;
6109;SDS011;3085;49.444;11.054;2022-12-28T00:08:59;5.53;;;3.17;;
6109;SDS011;3085;49.444;11.054;2022-12-28T00:11:26;4.97;;;2.97;;
6109;SDS011;3085;49.444;11.054;2022-12-28T00:13:54;6.50;;;3.57;;
6109;SDS011;3085;49.444;11.054;2022-12-28T00:16:25;4.97;;;2.90;;
6109;SDS011;3085;49.444;11.054;2022-12-28T00:18:53;4.17;;;2.90;;
6109;SDS011;3085;49.444;11.054;2022-12-28T00:21:20;6.50;;;3.40;;
6109;SDS011;3085;49.444;11.054;2022-12-28T00:23:49;12.03;;;4.97;;
6109;SDS011;3085;49.444;11.054;2022-12-28T00:26:16;6.53;;;3.87;;
6109;SDS011;3085;49.444;11.054;2022-12-28T00:28:44;6.83;;;3.60;;
6109;SDS011;3085;49.444;11.054;2022-12-28T00:31:11;11.50;;;3.63;;
6109;SDS011;3085;49.444;11.054;2022-12-28T00:33:39;5.80;;;3.50;;
6109;SDS011;3085;49.444;11.054;2022-12-28T00:36:08;6.93;;;3.87;;
6109;SDS011;3085;49.444;11.054;2022-12-28T00:38:36;7.27;;;3.63;;
6109;SDS011;3085;49.444;11.054;2022-12-28T00:41:03;5.33;;;4.10;;
6109;SDS011;3085;49.444;11.054;2022-12-28T00:43:31;10.80;;;3.47;;
6109;SDS011;3085;49.444;11.054;2022-12-28T00:45:58;12.63;;;3.87;;
6109;SDS011;3085;49.444;11.054;2022-12-28T00:48:25;8.93;;;4.13;;
6109;SDS011;3085;49.444;11.054;2022-12-28T00:50:55;7.20;;;4.57;;
6109;SDS011;3085;49.444;11.054;2022-12-28T00:53:26;5.00;;;3.50;;
6109;SDS011;3085;49.444;11.054;2022-12-28T00:55:53;7.20;;;3.57;;
6109;SDS011;3085;49.444;11.054;2022-12-28T00:58:20;7.93;;;2.90;;
6109;SDS011;3085;49.444;11.054;2022-12-28T01:00:47;7.00;;;3.93;;
6109;SDS011;3085;49.444;11.054;2022-12-28T01:03:14;4.43;;;3.30;;
6109;SDS011;3085;49.444;11.054;2022-12-28T01:05:41;5.10;;;3.90;;
6109;SDS011;3085;49.444;11.054;2022-12-28T01:08:09;8.10;;;3.57;;
6109;SDS011;3085;49.444;11.054;2022-12-28T01:10:37;8.50;;;4.60;;
6109;SDS011;3085;49.444;11.054;2022-12-28T01:13:04;6.30;;;3.87;;
6109;SDS011;3085;49.444;11.054;2022-12-28T01:15:31;8.60;;;4.10;;
6109;SDS011;3085;49.444;11.054;2022-12-28T01:17:58;13.50;;;3.63;;
6109;SDS011;3085;49.444;11.054;2022-12-28T01:20:24;6.10;;;4.03;;
6109;SDS011;3085;49.444;11.054;2022-12-28T01:22:51;6.77;;;3.83;;
6109;SDS011;3085;49.444;11.054;2022-12-28T01:25:19;6.80;;;3.20;;
6109;SDS011;3085;49.444;11.054;2022-12-28T01:27:46;10.80;;;4.83;;
6109;SDS011;3085;49.444;11.054;2022-12-28T01:30:13;7.60;;;3.70;;
6109;SDS011;3085;49.444;11.054;2022-12-28T01:32:40;7.40;;;3.73;;
6109;SDS011;3085;49.444;11.054;2022-12-28T01:35:07;6.00;;;3.40;;
6109;SDS011;3085;49.444;11.054;2022-12-28T01:37:34;6.03;;;3.83;;
6109;SDS011;3085;49.444;11.054;2022-12-28T01:40:01;5.57;;;3.20;;
6109;SDS011;3085;49.444;11.054;2022-12-28T01:42:30;5.00;;;3.67;;
6109;SDS011;3085;49.444;11.054;2022-12-28T01:44:57;7.17;;;4.70;;
6109;SDS011;3085;49.444;11.054;2022-12-28T01:47:41;9.07;;;3.50;;
6109;SDS011;3085;49.444;11.054;2022-12-28T01:50:10;4.67;;;3.63;;
6109;SDS011;3085;49.444;11.054;2022-12-28T01:52:40;7.17;;;4.33;;
6109;SDS011;3085;49.444;11.054;2022-12-28T01:55:10;7.57;;;4.50;;
6109;SDS011;3085;49.444;11.054;2022-12-28T01:57:42;7.13;;;4.27;;
6109;SDS011;3085;49.444;11.054;2022-12-28T02:00:12;6.37;;;3.63;;
6109;SDS011;3085;49.444;11.054;2022-12-28T02:02:42;13.40;;;4.93;;
6109;SDS011;3085;49.444;11.054;2022-12-28T02:05:13;5.27;;;4.17;;
6109;SDS011;3085;49.444;11.054;2022-12-28T02:07:42;7.47;;;4.53;;
6109;SDS011;3085;49.444;11.054;2022-12-28T02:10:16;11.53;;;5.20;;
6109;SDS011;3085;49.444;11.054;2022-12-28T02:12:45;8.00;;;3.83;;
6109;SDS011;3085;49.444;11.054;2022-12-28T02:15:12;7.17;;;4.50;;
6109;SDS011;3085;49.444;11.054;2022-12-28T02:17:39;16.03;;;6.00;;
6109;SDS011;3085;49.444;11.054;2022-12-28T02:20:06;12.73;;;4.93;;
6109;SDS011;3085;49.444;11.054;2022-12-28T02:25:32;9.23;;;4.60;;
6109;SDS011;3085;49.444;11.054;2022-12-28T02:31:19;15.23;;;4.60;;
6109;SDS011;3085;49.444;11.054;2022-12-28T02:33:56;6.63;;;4.37;;
6109;SDS011;3085;49.444;11.054;2022-12-28T02:36:33;6.70;;;4.33;;
6109;SDS011;3085;49.444;11.054;2022-12-28T02:39:04;7.40;;;3.90;;
6109;SDS011;3085;49.444;11.054;2022-12-28T02:41:34;10.10;;;5.10;;
6109;SDS011;3085;49.444;11.054;2022-12-28T02:44:03;9.67;;;4.83;;
6109;SDS011;3085;49.444;11.054;2022-12-28T02:46:32;11.07;;;5.50;;
6109;SDS011;3085;49.444;11.054;2022-12-28T02:49:18;9.27;;;5.40;;
6109;SDS011;3085;49.444;11.054;2022-12-28T02:52:06;8.30;;;4.50;;
6109;SDS011;3085;49.444;11.054;2022-12-28T02:54:48;14.33;;;5.10;;
6109;SDS011;3085;49.444;11.054;2022-12-28T02:57:44;13.40;;;4.87;;
6109;SDS011;3085;49.444;11.054;2022-12-28T03:00:32;6.73;;;4.10;;
6109;SDS011;3085;49.444;11.054;2022-12-28T03:03:10;10.30;;;5.20;;
6109;SDS011;3085;49.444;11.054;2022-12-28T03:05:44;6.27;;;4.83;;
6109;SDS011;3085;49.444;11.054;2022-12-28T03:08:38;8.20;;;4.40;;
6109;SDS011;3085;49.444;11.054;2022-12-28T03:11:15;8.60;;;4.90;;
6109;SDS011;3085;49.444;11.054;2022-12-28T03:13:47;12.37;;;4.97;;
6109;SDS011;3085;49.444;11.054;2022-12-28T03:16:21;10.53;;;5.87;;
6109;SDS011;3085;49.444;11.054;2022-12-28T03:18:54;9.20;;;4.73;;
6109;SDS011;3085;49.444;11.054;2022-12-28T03:21:43;8.83;;;5.50;;
6109;SDS011;3085;49.444;11.054;2022-12-28T03:24:28;7.70;;;5.00;;
6109;SDS011;3085;49.444;11.054;2022-12-28T03:27:13;9.60;;;5.87;;
6109;SDS011;3085;49.444;11.054;2022-12-28T03:30:00;9.97;;;5.00;;
6109;SDS011;3085;49.444;11.054;2022-12-28T03:32:50;11.70;;;5.87;;
6109;SDS011;3085;49.444;11.054;2022-12-28T03:35:19;9.60;;;4.70;;
6109;SDS011;3085;49.444;11.054;2022-12-28T03:37:52;13.00;;;5.70;;
6109;SDS011;3085;49.444;11.054;2022-12-28T03:40:26;11.23;;;5.50;;
6109;SDS011;3085;49.444;11.054;2022-12-28T03:42:59;12.60;;;6.10;;
6109;SDS011;3085;49.444;11.054;2022-12-28T03:45:49;12.87;;;5.53;;
6109;SDS011;3085;49.444;11.054;2022-12-28T03:48:20;11.53;;;5.43;;
6109;SDS011;3085;49.444;11.054;2022-12-28T03:50:49;10.73;;;6.00;;
6109;SDS011;3085;49.444;11.054;2022-12-28T03:53:18;19.93;;;5.57;;
6109;SDS011;3085;49.444;11.054;2022-12-28T03:55:49;9.30;;;5.33;;
6109;SDS011;3085;49.444;11.054;2022-12-28T03:58:16;11.37;;;6.83;;
6109;SDS011;3085;49.444;11.054;2022-12-28T04:00:43;10.83;;;5.97;;
6109;SDS011;3085;49.444;11.054;2022-12-28T04:03:10;10.13;;;4.73;;
6109;SDS011;3085;49.444;11.054;2022-12-28T04:05:37;9.60;;;5.30;;
6109;SDS011;3085;49.444;11.054;2022-12-28T04:08:05;8.33;;;4.63;;
6109;SDS011;3085;49.444;11.054;2022-12-28T04:10:31;7.37;;;4.70;;
6109;SDS011;3085;49.444;11.054;2022-12-28T04:12:58;7.87;;;5.20;;
6109;SDS011;3085;49.444;11.054;2022-12-28T04:15:25;9.80;;;4.67;;
6109;SDS011;3085;49.444;11.054;2022-12-28T04:17:52;10.50;;;5.40;;
6109;SDS011;3085;49.444;11.054;2022-12-28T04:20:18;8.67;;;5.10;;
6109;SDS011;3085;49.444;11.054;2022-12-28T04:22:45;8.93;;;4.93;;
6109;SDS011;3085;49.444;11.054;2022-12-28T04:25:13;10.67;;;5.70;;
6109;SDS011;3085;49.444;11.054;2022-12-28T04:27:40;12.27;;;6.20;;
6109;SDS011;3085;49.444;11.054;2022-12-28T04:30:07;7.50;;;5.83;;
6109;SDS011;3085;49.444;11.054;2022-12-28T04:32:34;8.10;;;5.03;;
6109;SDS011;3085;49.444;11.054;2022-12-28T04:35:01;10.73;;;6.07;;
6109;SDS011;3085;49.444;11.054;2022-12-28T04:37:28;15.47;;;6.37;;
6109;SDS011;3085;49.444;11.054;2022-12-28T04:39:55;9.30;;;6.07;;
6109;SDS011;3085;49.444;11.054;2022-12-28T04:42:23;9.37;;;5.17;;
6109;SDS011;3085;49.444;11.054;2022-12-28T04:44:51;10.40;;;5.33;;
6109;SDS011;3085;49.444;11.054;2022-12-28T04:47:17;11.37;;;6.20;;
6109;SDS011;3085;49.444;11.054;2022-12-28T04:49:44;12.83;;;5.00;;
6109;SDS011;3085;49.444;11.054;2022-12-28T04:52:11;9.70;;;5.60;;
6109;SDS011;3085;49.444;11.054;2022-12-28T04:54:38;9.40;;;5.50;;
6109;SDS011;3085;49.444;11.054;2022-12-28T04:57:05;16.53;;;6.23;;
6109;SDS011;3085;49.444;11.054;2022-12-28T04:59:33;11.80;;;6.60;;
6109;SDS011;3085;49.444;11.054;2022-12-28T05:02:00;8.40;;;4.97;;
6109;SDS011;3085;49.444;11.054;2022-12-28T05:04:27;10.80;;;5.10;;
6109;SDS011;3085;49.444;11.054;2022-12-28T05:06:53;12.73;;;5.97;;
6109;SDS011;3085;49.444;11.054;2022-12-28T05:09:20;10.07;;;5.33;;
6109;SDS011;3085;49.444;11.054;2022-12-28T05:11:47;11.53;;;5.80;;
6109;SDS011;3085;49.444;11.054;2022-12-28T05:14:14;10.70;;;6.03;;
6109;SDS011;3085;49.444;11.054;2022-12-28T05:16:42;8.33;;;5.23;;
6109;SDS011;3085;49.444;11.054;2022-12-28T05:19:09;6.33;;;4.63;;
6109;SDS011;3085;49.444;11.054;2022-12-28T05:21:35;8.00;;;4.20;;
6109;SDS011;3085;49.444;11.054;2022-12-28T05:24:02;10.00;;;5.93;;
6109;SDS011;3085;49.444;11.054;2022-12-28T05:26:29;12.17;;;6.20;;
6109;SDS011;3085;49.444;11.054;2022-12-28T05:28:57;15.10;;;6.60;;
6109;SDS011;3085;49.444;11.054;2022-12-28T05:31:24;10.00;;;5.67;;
6109;SDS011;3085;49.444;11.054;2022-12-28T05:33:52;10.30;;;5.40;;
6109;SDS011;3085;49.444;11.054;2022-12-28T05:36:20;8.07;;;5.57;;
6109;SDS011;3085;49.444;11.054;2022-12-28T05:38:50;13.07;;;6.10;;
6109;SDS011;3085;49.444;11.054;2022-12-28T05:41:18;7.00;;;5.00;;
6109;SDS011;3085;49.444;11.054;2022-12-28T05:43:46;14.80;;;5.43;;
6109;SDS011;3085;49.444;11.054;2022-12-28T05:46:14;12.30;;;5.97;;
6109;SDS011;3085;49.444;11.054;2022-12-28T05:48:44;9.70;;;5.63;;
6109;SDS011;3085;49.444;11.054;2022-12-28T05:51:14;7.57;;;4.83;;
6109;SDS011;3085;49.444;11.054;2022-12-28T05:53:42;12.30;;;6.00;;
6109;SDS011;3085;49.444;11.054;2022-12-28T05:56:09;10.30;;;6.10;;
6109;SDS011;3085;49.444;11.054;2022-12-28T05:58:38;10.77;;;5.10;;
6109;SDS011;3085;49.444;11.054;2022-12-28T06:01:05;7.23;;;5.53;;
6109;SDS011;3085;49.444;11.054;2022-12-28T06:03:33;14.77;;;6.70;;
6109;SDS011;3085;49.444;11.054;2022-12-28T06:06:04;7.07;;;4.93;;
6109;SDS011;3085;49.444;11.054;2022-12-28T06:08:34;8.70;;;4.77;;
6109;SDS011;3085;49.444;11.054;2022-12-28T06:11:01;11.30;;;5.80;;
6109;SDS011;3085;49.444;11.054;2022-12-28T06:13:28;9.23;;;5.20;;
6109;SDS011;3085;49.444;11.054;2022-12-28T06:15:56;12.73;;;5.70;;
6109;SDS011;3085;49.444;11.054;2022-12-28T06:18:25;9.87;;;5.60;;
6109;SDS011;3085;49.444;11.054;2022-12-28T06:20:53;12.77;;;5.73;;
6109;SDS011;3085;49.444;11.054;2022-12-28T06:23:25;13.60;;;6.00;;
6109;SDS011;3085;49.444;11.054;2022-12-28T06:25:54;11.27;;;5.73;;
6109;SDS011;3085;49.444;11.054;2022-12-28T06:28:23;10.53;;;5.60;;
6109;SDS011;3085;49.444;11.054;2022-12-28T06:30:50;16.73;;;7.10;;
6109;SDS011;3085;49.444;11.054;2022-12-28T06:33:17;13.90;;;6.00;;
6109;SDS011;3085;49.444;11.054;2022-12-28T06:35:43;8.67;;;6.13;;
6109;SDS011;3085;49.444;11.054;2022-12-28T06:38:10;10.50;;;5.57;;
6109;SDS011;3085;49.444;11.054;2022-12-28T06:40:37;18.73;;;6.00;;
6109;SDS011;3085;49.444;11.054;2022-12-28T06:43:05;15.40;;;6.50;;
6109;SDS011;3085;49.444;11.054;2022-12-28T06:45:31;8.53;;;5.43;;
6109;SDS011;3085;49.444;11.054;2022-12-28T06:47:58;21.83;;;7.50;;
6109;SDS011;3085;49.444;11.054;2022-12-28T06:50:25;11.33;;;5.57;;
6109;SDS011;3085;49.444;11.054;2022-12-28T06:52:52;14.93;;;7.00;;
6109;SDS011;3085;49.444;11.054;2022-12-28T06:55:18;16.90;;;6.80;;
6109;SDS011;3085;49.444;11.054;2022-12-28T06:57:45;9.50;;;4.93;;
6109;SDS011;3085;49.444;11.054;2022-12-28T07:00:14;13.10;;;6.50;;
6109;SDS011;3085;49.444;11.054;2022-12-28T07:02:41;10.90;;;6.93;;
6109;SDS011;3085;49.444;11.054;2022-12-28T07:05:08;16.60;;;6.30;;
6109;SDS011;3085;49.444;11.054;2022-12-28T07:07:35;10.70;;;5.83;;
6109;SDS011;3085;49.444;11.054;2022-12-28T07:10:01;16.60;;;6.73;;
6109;SDS011;3085;49.444;11.054;2022-12-28T07:12:29;11.17;;;6.03;;
6109;SDS011;3085;49.444;11.054;2022-12-28T07:14:56;12.60;;;7.43;;
6109;SDS011;3085;49.444;11.054;2022-12-28T07:17:24;13.73;;;6.23;;
6109;SDS011;3085;49.444;11.054;2022-12-28T07:19:50;14.77;;;6.90;;
6109;SDS011;3085;49.444;11.054;2022-12-28T07:22:17;11.70;;;6.67;;
6109;SDS011;3085;49.444;11.054;2022-12-28T07:24:44;18.03;;;6.47;;
6109;SDS011;3085;49.444;11.054;2022-12-28T07:27:11;14.30;;;6.43;;
6109;SDS011;3085;49.444;11.054;2022-12-28T07:29:37;12.20;;;5.80;;
6109;SDS011;3085;49.444;11.054;2022-12-28T07:32:06;8.50;;;5.60;;
6109;SDS011;3085;49.444;11.054;2022-12-28T07:34:34;12.50;;;6.77;;
6109;SDS011;3085;49.444;11.054;2022-12-28T07:37:00;13.93;;;6.83;;
6109;SDS011;3085;49.444;11.054;2022-12-28T07:39:27;14.70;;;6.37;;
6109;SDS011;3085;49.444;11.054;2022-12-28T07:41:54;11.67;;;5.83;;
6109;SDS011;3085;49.444;11.054;2022-12-28T07:44:20;9.83;;;6.23;;
6109;SDS011;3085;49.444;11.054;2022-12-28T07:46:47;16.93;;;6.37;;
6109;SDS011;3085;49.444;11.054;2022-12-28T07:49:14;15.30;;;6.57;;
6109;SDS011;3085;49.444;11.054;2022-12-28T07:51:42;20.17;;;6.77;;
6109;SDS011;3085;49.444;11.054;2022-12-28T07:54:09;13.63;;;6.63;;
6109;SDS011;3085;49.444;11.054;2022-12-28T07:56:36;13.20;;;7.23;;
6109;SDS011;3085;49.444;11.054;2022-12-28T07:59:03;9.50;;;5.40;;
6109;SDS011;3085;49.444;11.054;2022-12-28T08:01:31;12.23;;;6.90;;
6109;SDS011;3085;49.444;11.054;2022-12-28T08:04:01;13.83;;;5.80;;
6109;SDS011;3085;49.444;11.054;2022-12-28T08:06:29;13.43;;;5.60;;
6109;SDS011;3085;49.444;11.054;2022-12-28T08:09:00;7.13;;;4.87;;
6109;SDS011;3085;49.444;11.054;2022-12-28T08:11:28;11.50;;;5.90;;
6109;SDS011;3085;49.444;11.054;2022-12-28T08:13:57;11.33;;;6.47;;
6109;SDS011;3085;49.444;11.054;2022-12-28T08:16:25;14.40;;;6.50;;
6109;SDS011;3085;49.444;11.054;2022-12-28T08:18:53;11.17;;;5.80;;
6109;SDS011;3085;49.444;11.054;2022-12-28T08:21:22;10.80;;;6.23;;
6109;SDS011;3085;49.444;11.054;2022-12-28T08:23:50;11.80;;;5.50;;
6109;SDS011;3085;49.444;11.054;2022-12-28T08:26:19;9.50;;;5.97;;
6109;SDS011;3085;49.444;11.054;2022-12-28T08:28:48;11.97;;;6.70;;
6109;SDS011;3085;49.444;11.054;2022-12-28T08:31:17;11.50;;;6.00;;
6109;SDS011;3085;49.444;11.054;2022-12-28T08:33:46;12.10;;;5.87;;
6109;SDS011;3085;49.444;11.054;2022-12-28T08:36:13;11.60;;;6.10;;
6109;SDS011;3085;49.444;11.054;2022-12-28T08:38:41;10.57;;;6.23;;
6109;SDS011;3085;49.444;11.054;2022-12-28T08:41:10;13.93;;;5.93;;
6109;SDS011;3085;49.444;11.054;2022-12-28T08:43:40;10.63;;;6.07;;
6109;SDS011;3085;49.444;11.054;2022-12-28T08:46:07;11.80;;;6.40;;
6109;SDS011;3085;49.444;11.054;2022-12-28T08:48:37;10.33;;;5.80;;
6109;SDS011;3085;49.444;11.054;2022-12-28T08:51:07;13.53;;;5.60;;
6109;SDS011;3085;49.444;11.054;2022-12-28T08:53:35;18.90;;;5.30;;
6109;SDS011;3085;49.444;11.054;2022-12-28T08:56:02;11.50;;;5.30;;
6109;SDS011;3085;49.444;11.054;2022-12-28T08:58:30;13.47;;;6.60;;
6109;SDS011;3085;49.444;11.054;2022-12-28T09:01:04;11.27;;;6.17;;
6109;SDS011;3085;49.444;11.054;2022-12-28T09:03:33;10.87;;;6.30;;
6109;SDS011;3085;49.444;11.054;2022-12-28T09:06:01;12.53;;;6.30;;
6109;SDS011;3085;49.444;11.054;2022-12-28T09:08:28;12.07;;;6.30;;
6109;SDS011;3085;49.444;11.054;2022-12-28T09:10:57;8.97;;;5.20;;
6109;SDS011;3085;49.444;11.054;2022-12-28T09:13:24;12.30;;;5.67;;
6109;SDS011;3085;49.444;11.054;2022-12-28T09:15:54;11.90;;;6.50;;
6109;SDS011;3085;49.444;11.054;2022-12-28T09:18:23;9.97;;;5.33;;
6109;SDS011;3085;49.444;11.054;2022-12-28T09:20:50;18.60;;;5.40;;
6109;SDS011;3085;49.444;11.054;2022-12-28T09:23:16;14.77;;;6.23;;
6109;SDS011;3085;49.444;11.054;2022-12-28T09:25:44;9.90;;;5.57;;
6109;SDS011;3085;49.444;11.054;2022-12-28T09:28:11;11.57;;;5.80;;
6109;SDS011;3085;49.444;11.054;2022-12-28T09:30:39;12.70;;;6.40;;
6109;SDS011;3085;49.444;11.054;2022-12-28T09:33:06;11.10;;;5.73;;
6109;SDS011;3085;49.444;11.054;2022-12-28T09:35:51;11.07;;;5.57;;
6109;SDS011;3085;49.444;11.054;2022-12-28T09:38:22;8.17;;;4.63;;
6109;SDS011;3085;49.444;11.054;2022-12-28T09:40:49;8.03;;;5.10;;
6109;SDS011;3085;49.444;11.054;2022-12-28T09:43:16;15.90;;;5.67;;
6109;SDS011;3085;49.444;11.054;2022-12-28T09:45:43;9.17;;;5.27;;
6109;SDS011;3085;49.444;11.054;2022-12-28T09:48:12;9.63;;;4.97;;
6109;SDS011;3085;49.444;11.054;2022-12-28T09:50:43;9.33;;;5.10;;
6109;SDS011;3085;49.444;11.054;2022-12-28T09:53:23;8.23;;;4.37;;
6109;SDS011;3085;49.444;11.054;2022-12-28T09:55:58;8.53;;;4.53;;
6109;SDS011;3085;49.444;11.054;2022-12-28T09:58:27;10.80;;;4.90;;
6109;SDS011;3085;49.444;11.054;2022-12-28T10:00:56;11.07;;;5.47;;
6109;SDS011;3085;49.444;11.054;2022-12-28T10:03:24;15.57;;;5.90;;
6109;SDS011;3085;49.444;11.054;2022-12-28T10:06:00;10.53;;;5.63;;
6109;SDS011;3085;49.444;11.054;2022-12-28T10:08:31;6.90;;;4.47;;
6109;SDS011;3085;49.444;11.054;2022-12-28T10:11:02;7.63;;;4.27;;
6109;SDS011;3085;49.444;11.054;2022-12-28T10:13:32;15.13;;;4.13;;
6109;SDS011;3085;49.444;11.054;2022-12-28T10:16:02;6.07;;;4.07;;
6109;SDS011;3085;49.444;11.054;2022-12-28T10:18:30;11.77;;;5.33;;
6109;SDS011;3085;49.444;11.054;2022-12-28T10:20:59;12.10;;;5.30;;
6109;SDS011;3085;49.444;11.054;2022-12-28T10:23:27;9.93;;;4.47;;
6109;SDS011;3085;49.444;11.054;2022-12-28T10:25:59;9.77;;;4.23;;
6109;SDS011;3085;49.444;11.054;2022-12-28T10:28:30;7.60;;;4.70;;
6109;SDS011;3085;49.444;11.054;2022-12-28T10:31:06;8.07;;;3.90;;
6109;SDS011;3085;49.444;11.054;2022-12-28T10:33:36;6.30;;;4.07;;
6109;SDS011;3085;49.444;11.054;2022-12-28T10:36:09;6.83;;;4.40;;
6109;SDS011;3085;49.444;11.054;2022-12-28T10:38:39;8.27;;;4.50;;
6109;SDS011;3085;49.444;11.054;2022-12-28T10:41:09;8.53;;;4.97;;
6109;SDS011;3085;49.444;11.054;2022-12-28T10:43:39;6.50;;;4.00;;
6109;SDS011;3085;49.444;11.054;2022-12-28T10:46:12;6.17;;;4.03;;
6109;SDS011;3085;49.444;11.054;2022-12-28T10:48:43;7.53;;;4.47;;
6109;SDS011;3085;49.444;11.054;2022-12-28T10:51:12;8.53;;;4.87;;
6109;SDS011;3085;49.444;11.054;2022-12-28T10:53:43;8.20;;;4.17;;
6109;SDS011;3085;49.444;11.054;2022-12-28T10:56:22;7.50;;;4.07;;
6109;SDS011;3085;49.444;11.054;2022-12-28T10:58:50;10.97;;;5.10;;
6109;SDS011;3085;49.444;11.054;2022-12-28T11:01:24;7.13;;;3.67;;
6109;SDS011;3085;49.444;11.054;2022-12-28T11:04:00;11.00;;;4.50;;
6109;SDS011;3085;49.444;11.054;2022-12-28T11:06:30;4.07;;;3.07;;
6109;SDS011;3085;49.444;11.054;2022-12-28T11:09:03;6.87;;;3.87;;
6109;SDS011;3085;49.444;11.054;2022-12-28T11:11:38;8.57;;;4.63;;
6109;SDS011;3085;49.444;11.054;2022-12-28T11:14:09;5.20;;;3.50;;
6109;SDS011;3085;49.444;11.054;2022-12-28T11:16:40;6.07;;;3.67;;
6109;SDS011;3085;49.444;11.054;2022-12-28T11:19:08;5.33;;;3.33;;
6109;SDS011;3085;49.444;11.054;2022-12-28T11:21:36;5.70;;;4.40;;
6109;SDS011;3085;49.444;11.054;2022-12-28T11:24:05;7.27;;;4.00;;
6109;SDS011;3085;49.444;11.054;2022-12-28T11:26:36;9.70;;;3.80;;
6109;SDS011;3085;49.444;11.054;2022-12-28T11:29:04;5.33;;;3.47;;
6109;SDS011;3085;49.444;11.054;2022-12-28T11:31:32;9.23;;;3.67;;
6109;SDS011;3085;49.444;11.054;2022-12-28T11:34:03;8.10;;;4.07;;
6109;SDS011;3085;49.444;11.054;2022-12-28T11:36:32;7.03;;;4.37;;
6109;SDS011;3085;49.444;11.054;2022-12-28T11:41:58;5.40;;;3.90;;
6109;SDS011;3085;49.444;11.054;2022-12-28T11:47:26;8.13;;;3.67;;
6109;SDS011;3085;49.444;11.054;2022-12-28T11:53:03;3.53;;;2.43;;
6109;SDS011;3085;49.444;11.054;2022-12-28T11:55:57;4.03;;;2.93;;
6109;SDS011;3085;49.444;11.054;2022-12-28T12:01:39;4.77;;;3.00;;
6109;SDS011;3085;49.444;11.054;2022-12-28T12:04:29;5.03;;;3.17;;
6109;SDS011;3085;49.444;11.054;2022-12-28T12:07:12;4.77;;;2.70;;
6109;SDS011;3085;49.444;11.054;2022-12-28T12:09:45;4.97;;;2.90;;
6109;SDS011;3085;49.444;11.054;2022-12-28T12:12:34;15.83;;;2.80;;
6109;SDS011;3085;49.444;11.054;2022-12-28T12:15:03;4.70;;;2.67;;
6109;SDS011;3085;49.444;11.054;2022-12-28T12:17:39;2.50;;;2.23;;
6109;SDS011;3085;49.444;11.054;2022-12-28T12:20:16;3.73;;;2.50;;
6109;SDS011;3085;49.444;11.054;2022-12-28T12:22:51;4.13;;;2.30;;
6109;SDS011;3085;49.444;11.054;2022-12-28T12:25:23;5.93;;;3.30;;
6109;SDS011;3085;49.444;11.054;2022-12-28T12:27:59;9.40;;;2.37;;
6109;SDS011;3085;49.444;11.054;2022-12-28T12:30:32;5.07;;;2.70;;
6109;SDS011;3085;49.444;11.054;2022-12-28T12:33:01;10.40;;;4.20;;
6109;SDS011;3085;49.444;11.054;2022-12-28T12:35:33;4.90;;;2.83;;
6109;SDS011;3085;49.444;11.054;2022-12-28T12:38:19;4.00;;;2.40;;
6109;SDS011;3085;49.444;11.054;2022-12-28T12:40:57;3.87;;;2.50;;
6109;SDS011;3085;49.444;11.054;2022-12-28T12:43:38;7.37;;;3.20;;
6109;SDS011;3085;49.444;11.054;2022-12-28T12:46:24;6.80;;;3.20;;
6109;SDS011;3085;49.444;11.054;2022-12-28T12:49:17;9.57;;;3.00;;
6109;SDS011;3085;49.444;11.054;2022-12-28T12:51:55;4.73;;;3.23;;
6109;SDS011;3085;49.444;11.054;2022-12-28T12:54:28;4.37;;;2.50;;
6109;SDS011;3085;49.444;11.054;2022-12-28T12:57:06;8.90;;;3.23;;
6109;SDS011;3085;49.444;11.054;2022-12-28T12:59:47;5.43;;;2.50;;
6109;SDS011;3085;49.444;11.054;2022-12-28T13:02:40;5.73;;;2.83;;
6109;SDS011;3085;49.444;11.054;2022-12-28T13:05:20;6.70;;;2.80;;
6109;SDS011;3085;49.444;11.054;2022-12-28T13:07:52;4.00;;;2.50;;
6109;SDS011;3085;49.444;11.054;2022-12-28T13:10:22;3.50;;;2.77;;
6109;SDS011;3085;49.444;11.054;2022-12-28T13:12:55;3.80;;;2.57;;
6109;SDS011;3085;49.444;11.054;2022-12-28T13:15:26;7.87;;;2.80;;
6109;SDS011;3085;49.444;11.054;2022-12-28T13:17:57;4.90;;;2.57;;
6109;SDS011;3085;49.444;11.054;2022-12-28T13:20:25;7.07;;;3.00;;
6109;SDS011;3085;49.444;11.054;2022-12-28T13:22:52;4.27;;;2.47;;
6109;SDS011;3085;49.444;11.054;2022-12-28T13:25:27;5.37;;;2.30;;
6109;SDS011;3085;49.444;11.054;2022-12-28T13:27:55;3.47;;;2.17;;
6109;SDS011;3085;49.444;11.054;2022-12-28T13:30:25;2.23;;;1.93;;
6109;SDS011;3085;49.444;11.054;2022-12-28T13:32:54;3.10;;;2.30;;
6109;SDS011;3085;49.444;11.054;2022-12-28T13:35:22;7.77;;;2.50;;
6109;SDS011;3085;49.444;11.054;2022-12-28T13:37:57;4.93;;;2.60;;
6109;SDS011;3085;49.444;11.054;2022-12-28T13:40:26;2.03;;;1.80;;
6109;SDS011;3085;49.444;11.054;2022-12-28T13:42:55;4.23;;;2.43;;
6109;SDS011;3085;49.444;11.054;2022-12-28T13:45:33;5.57;;;2.27;;
6109;SDS011;3085;49.444;11.054;2022-12-28T13:48:00;3.90;;;2.30;;
6109;SDS011;3085;49.444;11.054;2022-12-28T13:50:30;3.63;;;2.20;;
6109;SDS011;3085;49.444;11.054;2022-12-28T13:53:00;3.83;;;2.80;;
6109;SDS011;3085;49.444;11.054;2022-12-28T13:55:30;5.83;;;2.50;;
6109;SDS011;3085;49.444;11.054;2022-12-28T13:58:02;4.60;;;2.93;;
6109;SDS011;3085;49.444;11.054;2022-12-28T14:00:34;4.40;;;2.77;;
6109;SDS011;3085;49.444;11.054;2022-12-28T14:03:02;4.47;;;2.90;;
6109;SDS011;3085;49.444;11.054;2022-12-28T14:05:34;4.10;;;1.90;;
6109;SDS011;3085;49.444;11.054;2022-12-28T14:08:03;4.87;;;2.40;;
6109;SDS011;3085;49.444;11.054;2022-12-28T14:10:31;2.90;;;2.17;;
6109;SDS011;3085;49.444;11.054;2022-12-28T14:12:58;10.10;;;2.67;;
6109;SDS011;3085;49.444;11.054;2022-12-28T14:15:26;4.23;;;2.17;;
6109;SDS011;3085;49.444;11.054;2022-12-28T14:17:54;5.77;;;2.23;;
6109;SDS011;3085;49.444;11.054;2022-12-28T14:20:22;9.43;;;2.27;;
6109;SDS011;3085;49.444;11.054;2022-12-28T14:22:48;3.83;;;2.20;;
6109;SDS011;3085;49.444;11.054;2022-12-28T14:25:16;5.90;;;2.60;;
6109;SDS011;3085;49.444;11.054;2022-12-28T14:27:45;3.10;;;2.30;;
6109;SDS011;3085;49.444;11.054;2022-12-28T14:30:20;3.57;;;2.73;;
6109;SDS011;3085;49.444;11.054;2022-12-28T14:32:48;6.83;;;2.70;;
6109;SDS011;3085;49.444;11.054;2022-12-28T14:35:17;8.40;;;2.60;;
6109;SDS011;3085;49.444;11.054;2022-12-28T14:37:48;6.20;;;2.40;;
6109;SDS011;3085;49.444;11.054;2022-12-28T14:40:20;7.30;;;3.40;;
6109;SDS011;3085;49.444;11.054;2022-12-28T14:42:51;4.73;;;2.83;;
6109;SDS011;3085;49.444;11.054;2022-12-28T14:45:20;4.20;;;2.67;;
6109;SDS011;3085;49.444;11.054;2022-12-28T14:47:59;3.50;;;2.63;;
6109;SDS011;3085;49.444;11.054;2022-12-28T14:50:28;5.30;;;3.00;;
6109;SDS011;3085;49.444;11.054;2022-12-28T14:53:04;4.30;;;2.50;;
6109;SDS011;3085;49.444;11.054;2022-12-28T14:55:33;3.23;;;2.43;;
6109;SDS011;3085;49.444;11.054;2022-12-28T14:58:06;4.37;;;2.27;;
6109;SDS011;3085;49.444;11.054;2022-12-28T15:00:52;2.30;;;2.10;;
6109;SDS011;3085;49.444;11.054;2022-12-28T15:03:22;2.80;;;1.90;;
6109;SDS011;3085;49.444;11.054;2022-12-28T15:05:54;6.37;;;2.30;;
6109;SDS011;3085;49.444;11.054;2022-12-28T15:08:22;3.13;;;1.87;;
6109;SDS011;3085;49.444;11.054;2022-12-28T15:10:52;2.40;;;1.80;;
6109;SDS011;3085;49.444;11.054;2022-12-28T15:13:20;2.43;;;1.80;;
6109;SDS011;3085;49.444;11.054;2022-12-28T15:15:53;3.17;;;2.27;;
6109;SDS011;3085;49.444;11.054;2022-12-28T15:18:22;5.53;;;2.90;;
6109;SDS011;3085;49.444;11.054;2022-12-28T15:20:49;12.50;;;2.40;;
6109;SDS011;3085;49.444;11.054;2022-12-28T15:23:17;12.60;;;2.60;;
6109;SDS011;3085;49.444;11.054;2022-12-28T15:25:45;3.07;;;2.20;;
6109;SDS011;3085;49.444;11.054;2022-12-28T15:28:12;4.00;;;2.40;;
6109;SDS011;3085;49.444;11.054;2022-12-28T15:30:39;33.90;;;8.00;;
6109;SDS011;3085;49.444;11.054;2022-12-28T15:33:07;5.73;;;2.47;;